Time,TemperatureF,DewpointF,PressureIn,WindDirection,WindDirectionDegrees,WindSpeedMPH,WindSpeedGustMPH,Humidity,HourlyPrecipIn,Conditions,Clouds,dailyrainin,SoftwareType,DateUTC
2013-07-09 00:22:00,63.0,59.0,29.92,NW,305,3.0,-999.0,86,-99.99,,,-99.99,,2013-07-09 07:22:00,
2013-07-09 00:34:00,63.0,59.0,29.92,NW,305,3.0,-999.0,86,-99.99,,,-99.99,,2013-07-09 07:34:00,
2013-07-09 00:43:00,63.0,59.0,29.92,NW,305,3.0,-999.0,86,-99.99,,,-99.99,,2013-07-09 07:43:00,
2013-07-09 00:53:00,63.0,59.0,29.92,NW,305,3.0,-999.0,86,-99.99,,,-99.99,,2013-07-09 07:53:00,
2013-07-09 01:01:00,63.0,59.0,29.92,NW,305,3.0,-999.0,86,-99.99,,,-99.99,,2013-07-09 08:01:00,
2013-07-09 01:22:00,62.0,58.0,29.93,NW,304,0.0,-999.0,87,-99.99,,,-99.99,,2013-07-09 08:22:00,
2013-07-09 01:33:00,62.0,58.0,29.93,NW,304,0.0,-999.0,87,-99.99,,,-99.99,,2013-07-09 08:33:00,
2013-07-09 01:43:00,62.0,58.0,29.93,NW,304,0.0,-999.0,87,-99.99,,,-99.99,,2013-07-09 08:43:00,
2013-07-09 01:52:00,62.0,58.0,29.93,WNW,302,2.0,-999.0,88,-99.99,,,-99.99,,2013-07-09 08:52:00,
2013-07-09 02:02:00,62.0,58.0,29.93,WNW,302,2.0,-999.0,88,-99.99,,,-99.99,,2013-07-09 09:02:00,
2013-07-09 02:11:00,62.0,58.0,29.93,WNW,302,2.0,-999.0,88,-99.99,,,-99.99,,2013-07-09 09:11:00,
2013-07-09 02:22:00,62.0,59.0,29.93,WNW,302,1.0,-999.0,89,-99.99,,,-99.99,,2013-07-09 09:22:00,
2013-07-09 02:34:00,62.0,59.0,29.93,WNW,302,1.0,-999.0,89,-99.99,,,-99.99,,2013-07-09 09:34:00,
2013-07-09 02:42:00,62.0,59.0,29.93,WNW,302,1.0,-999.0,89,-99.99,,,-99.99,,2013-07-09 09:42:00,
2013-07-09 02:53:00,62.0,59.0,29.93,WNW,302,1.0,-999.0,89,-99.99,,,-99.99,,2013-07-09 09:53:00,
2013-07-09 03:01:00,62.0,59.0,29.93,WNW,302,1.0,-999.0,89,-99.99,,,-99.99,,2013-07-09 10:01:00,
2013-07-09 03:22:00,61.0,58.0,29.93,WNW,302,1.0,-999.0,89,-99.99,,,-99.99,,2013-07-09 10:22:00,
2013-07-09 03:34:00,61.0,58.0,29.93,WNW,302,1.0,-999.0,89,-99.99,,,-99.99,,2013-07-09 10:34:00,
2013-07-09 03:42:00,61.0,58.0,29.93,WNW,302,1.0,-999.0,89,-99.99,,,-99.99,,2013-07-09 10:42:00,
2013-07-09 03:52:00,61.0,58.0,29.93,WNW,302,1.0,-999.0,89,-99.99,,,-99.99,,2013-07-09 10:52:00,
2013-07-09 04:01:00,61.0,58.0,29.93,WNW,302,1.0,-999.0,89,-99.99,,,-99.99,,2013-07-09 11:01:00,
2013-07-09 04:22:00,61.0,58.0,29.93,NW,314,2.0,-999.0,90,-99.99,,,-99.99,,2013-07-09 11:22:00,
2013-07-09 04:34:00,61.0,58.0,29.93,NW,314,2.0,-999.0,90,-99.99,,,-99.99,,2013-07-09 11:34:00,
2013-07-09 04:42:00,61.0,58.0,29.93,NW,314,2.0,-999.0,90,-99.99,,,-99.99,,2013-07-09 11:42:00,
2013-07-09 04:53:00,61.0,58.0,29.91,NW,317,3.0,-999.0,90,-99.99,,,-99.99,,2013-07-09 11:53:00,
2013-07-09 05:01:00,61.0,58.0,29.91,NW,317,3.0,-999.0,90,-99.99,,,-99.99,,2013-07-09 12:01:00,
2013-07-09 05:11:00,61.0,58.0,29.91,NW,317,3.0,-999.0,90,-99.99,,,-99.99,,2013-07-09 12:11:00,
2013-07-09 05:22:00,61.0,58.0,29.92,NW,317,2.0,-999.0,90,-99.99,,,-99.99,,2013-07-09 12:22:00,
2013-07-09 05:33:00,61.0,58.0,29.92,NW,317,2.0,-999.0,90,-99.99,,,-99.99,,2013-07-09 12:33:00,
2013-07-09 05:43:00,61.0,58.0,29.92,NW,317,2.0,-999.0,90,-99.99,,,-99.99,,2013-07-09 12:43:00,
2013-07-09 05:52:00,61.0,58.0,29.91,NW,317,1.0,-999.0,91,-99.99,,,-99.99,,2013-07-09 12:52:00,
2013-07-09 06:11:00,61.0,58.0,29.91,NW,317,1.0,-999.0,91,-99.99,,,-99.99,,2013-07-09 13:11:00,
2013-07-09 06:33:00,61.0,58.0,29.93,NW,317,0.0,-999.0,91,-99.99,,,-99.99,,2013-07-09 13:33:00,
2013-07-09 06:43:00,61.0,58.0,29.93,NW,317,0.0,-999.0,91,-99.99,,,-99.99,,2013-07-09 13:43:00,
2013-07-09 06:53:00,61.0,58.0,29.93,NW,318,1.0,-999.0,91,-99.99,,,-99.99,,2013-07-09 13:53:00,
2013-07-09 07:01:00,61.0,58.0,29.93,NW,318,1.0,-999.0,91,-99.99,,,-99.99,,2013-07-09 14:01:00,
2013-07-09 07:11:00,61.0,58.0,29.93,NW,318,1.0,-999.0,91,-99.99,,,-99.99,,2013-07-09 14:11:00,
2013-07-09 07:22:00,61.0,58.0,29.94,WNW,282,2.0,-999.0,91,-99.99,,,-99.99,,2013-07-09 14:22:00,
2013-07-09 07:34:00,61.0,58.0,29.94,WNW,282,2.0,-999.0,91,-99.99,,,-99.99,,2013-07-09 14:34:00,
2013-07-09 07:43:00,61.0,58.0,29.94,WNW,282,2.0,-999.0,91,-99.99,,,-99.99,,2013-07-09 14:43:00,
2013-07-09 07:53:00,61.0,58.0,29.94,WNW,282,2.0,-999.0,91,-99.99,,,-99.99,,2013-07-09 14:53:00,
2013-07-09 08:01:00,61.0,58.0,29.94,WNW,282,2.0,-999.0,91,-99.99,,,-99.99,,2013-07-09 15:01:00,
2013-07-09 08:33:00,65.0,61.0,29.97,WNW,283,2.0,-999.0,87,-99.99,,,-99.99,,2013-07-09 15:33:00,
2013-07-09 08:52:00,65.0,61.0,29.97,WNW,283,2.0,-999.0,87,-99.99,,,-99.99,,2013-07-09 15:52:00,
2013-07-09 09:01:00,65.0,61.0,29.97,WNW,283,2.0,-999.0,87,-99.99,,,-99.99,,2013-07-09 16:01:00,
2013-07-09 09:11:00,65.0,61.0,29.97,WNW,283,2.0,-999.0,87,-99.99,,,-99.99,,2013-07-09 16:11:00,
2013-07-09 09:22:00,65.0,61.0,29.97,WNW,283,2.0,-999.0,87,-99.99,,,-99.99,,2013-07-09 16:22:00,
2013-07-09 09:53:00,71.0,60.0,29.97,South,190,1.0,-999.0,68,-99.99,,,-99.99,,2013-07-09 16:53:00,
2013-07-09 10:02:00,71.0,60.0,29.97,South,190,1.0,-999.0,68,-99.99,,,-99.99,,2013-07-09 17:02:00,
2013-07-09 10:11:00,71.0,60.0,29.97,South,190,1.0,-999.0,68,-99.99,,,-99.99,,2013-07-09 17:11:00,
2013-07-09 10:35:00,73.0,60.0,29.97,WSW,245,2.0,-999.0,63,-99.99,,,-99.99,,2013-07-09 17:35:00,
2013-07-09 10:45:00,73.0,60.0,29.97,WSW,245,2.0,-999.0,63,-99.99,,,-99.99,,2013-07-09 17:45:00,
2013-07-09 10:53:00,75.0,61.0,29.97,WSW,241,5.0,-999.0,61,-99.99,,,-99.99,,2013-07-09 17:53:00,
2013-07-09 11:01:00,75.0,61.0,29.97,WSW,241,5.0,-999.0,61,-99.99,,,-99.99,,2013-07-09 18:01:00,
2013-07-09 11:11:00,75.0,61.0,29.97,WSW,241,5.0,-999.0,61,-99.99,,,-99.99,,2013-07-09 18:11:00,
2013-07-09 11:22:00,75.0,61.0,29.97,WSW,241,5.0,-999.0,61,-99.99,,,-99.99,,2013-07-09 18:22:00,
2013-07-09 11:32:00,75.0,61.0,29.97,WSW,241,5.0,-999.0,61,-99.99,,,-99.99,,2013-07-09 18:32:00,
2013-07-09 12:52:00,77.0,61.0,29.99,WNW,288,5.0,-999.0,58,-99.99,,,-99.99,,2013-07-09 19:52:00,
2013-07-09 13:01:00,77.0,61.0,29.99,WNW,288,5.0,-999.0,58,-99.99,,,-99.99,,2013-07-09 20:01:00,
2013-07-09 13:11:00,77.0,61.0,29.99,WNW,288,5.0,-999.0,58,-99.99,,,-99.99,,2013-07-09 20:11:00,
2013-07-09 13:21:00,77.0,61.0,29.99,WNW,288,5.0,-999.0,58,-99.99,,,-99.99,,2013-07-09 20:21:00,
2013-07-09 13:32:00,77.0,61.0,29.99,WNW,288,5.0,-999.0,58,-99.99,,,-99.99,,2013-07-09 20:32:00,
2013-07-09 13:52:00,78.0,58.0,29.99,West,262,6.0,-999.0,50,-99.99,,,-99.99,,2013-07-09 20:52:00,
2013-07-09 14:01:00,78.0,58.0,29.99,West,262,6.0,-999.0,50,-99.99,,,-99.99,,2013-07-09 21:01:00,
2013-07-09 14:11:00,78.0,58.0,29.99,West,262,6.0,-999.0,50,-99.99,,,-99.99,,2013-07-09 21:11:00,
2013-07-09 14:22:00,78.0,57.0,29.99,SW,232,7.0,-999.0,49,-99.99,,,-99.99,,2013-07-09 21:22:00,
2013-07-09 14:32:00,78.0,57.0,29.99,SW,232,7.0,-999.0,49,-99.99,,,-99.99,,2013-07-09 21:32:00,
2013-07-09 14:42:00,78.0,57.0,29.99,SW,232,7.0,-999.0,49,-99.99,,,-99.99,,2013-07-09 21:42:00,
2013-07-09 14:52:00,78.0,59.0,30.00,WSW,243,8.0,-999.0,52,-99.99,,,-99.99,,2013-07-09 21:52:00,
2013-07-09 15:01:00,78.0,59.0,30.00,WSW,243,8.0,-999.0,52,-99.99,,,-99.99,,2013-07-09 22:01:00,
2013-07-09 15:11:00,78.0,59.0,30.00,WSW,243,8.0,-999.0,52,-99.99,,,-99.99,,2013-07-09 22:11:00,
2013-07-09 15:22:00,78.0,59.0,30.00,WSW,243,8.0,-999.0,52,-99.99,,,-99.99,,2013-07-09 22:22:00,
2013-07-09 15:33:00,78.0,59.0,30.00,WSW,243,8.0,-999.0,52,-99.99,,,-99.99,,2013-07-09 22:33:00,
2013-07-09 15:53:00,75.0,56.0,29.99,West,259,7.0,-999.0,52,-99.99,,,-99.99,,2013-07-09 22:53:00,
2013-07-09 16:01:00,75.0,56.0,29.99,West,259,7.0,-999.0,52,-99.99,,,-99.99,,2013-07-09 23:01:00,
2013-07-09 16:11:00,75.0,56.0,29.99,West,259,7.0,-999.0,52,-99.99,,,-99.99,,2013-07-09 23:11:00,
2013-07-09 16:22:00,75.0,56.0,29.99,West,259,7.0,-999.0,52,-99.99,,,-99.99,,2013-07-09 23:22:00,
2013-07-09 17:22:00,73.0,58.0,29.97,West,275,6.0,-999.0,59,-99.99,,,-99.99,,2013-07-10 00:22:00,
2013-07-09 17:33:00,73.0,58.0,29.97,West,275,6.0,-999.0,59,-99.99,,,-99.99,,2013-07-10 00:33:00,
2013-07-09 17:43:00,73.0,58.0,29.97,West,275,6.0,-999.0,59,-99.99,,,-99.99,,2013-07-10 00:43:00,
2013-07-09 17:52:00,73.0,58.0,29.97,West,275,6.0,-999.0,59,-99.99,,,-99.99,,2013-07-10 00:52:00,
2013-07-09 18:01:00,73.0,58.0,29.97,West,275,6.0,-999.0,59,-99.99,,,-99.99,,2013-07-10 01:01:00,
2013-07-09 18:22:00,71.0,58.0,29.96,West,278,6.0,-999.0,63,-99.99,,,-99.99,,2013-07-10 01:22:00,
2013-07-09 18:33:00,71.0,58.0,29.96,West,278,6.0,-999.0,63,-99.99,,,-99.99,,2013-07-10 01:33:00,
2013-07-09 18:43:00,71.0,58.0,29.96,West,278,6.0,-999.0,63,-99.99,,,-99.99,,2013-07-10 01:43:00,
2013-07-09 18:53:00,70.0,59.0,29.95,SW,236,4.0,-999.0,68,-99.99,,,-99.99,,2013-07-10 01:53:00,
2013-07-09 19:01:00,70.0,59.0,29.95,SW,236,4.0,-999.0,68,-99.99,,,-99.99,,2013-07-10 02:01:00,
2013-07-09 19:11:00,70.0,59.0,29.95,SW,236,4.0,-999.0,68,-99.99,,,-99.99,,2013-07-10 02:11:00,
2013-07-09 19:22:00,70.0,59.0,29.95,SW,236,4.0,-999.0,68,-99.99,,,-99.99,,2013-07-10 02:22:00,
2013-07-09 19:53:00,66.0,58.0,29.95,NW,322,5.0,-999.0,75,-99.99,,,-99.99,,2013-07-10 02:53:00,
2013-07-09 20:01:00,66.0,58.0,29.95,NW,322,5.0,-999.0,75,-99.99,,,-99.99,,2013-07-10 03:01:00,
2013-07-09 20:11:00,66.0,58.0,29.95,NW,322,5.0,-999.0,75,-99.99,,,-99.99,,2013-07-10 03:11:00,
2013-07-09 20:22:00,66.0,58.0,29.95,NW,322,5.0,-999.0,75,-99.99,,,-99.99,,2013-07-10 03:22:00,
2013-07-09 20:32:00,66.0,58.0,29.95,NW,322,5.0,-999.0,75,-99.99,,,-99.99,,2013-07-10 03:32:00,
2013-07-09 20:52:00,64.0,58.0,29.94,WNW,293,3.0,-999.0,82,-99.99,,,-99.99,,2013-07-10 03:52:00,
2013-07-09 21:01:00,64.0,58.0,29.94,WNW,293,3.0,-999.0,82,-99.99,,,-99.99,,2013-07-10 04:01:00,
2013-07-09 21:11:00,64.0,58.0,29.94,WNW,293,3.0,-999.0,82,-99.99,,,-99.99,,2013-07-10 04:11:00,
2013-07-09 21:22:00,64.0,58.0,29.94,WNW,293,3.0,-999.0,82,-99.99,,,-99.99,,2013-07-10 04:22:00,
2013-07-09 21:32:00,64.0,58.0,29.94,WNW,293,3.0,-999.0,82,-99.99,,,-99.99,,2013-07-10 04:32:00,
2013-07-09 21:52:00,63.0,58.0,29.94,NW,321,2.0,-999.0,85,-99.99,,,-99.99,,2013-07-10 04:52:00,
2013-07-09 22:02:00,63.0,58.0,29.94,NW,321,2.0,-999.0,85,-99.99,,,-99.99,,2013-07-10 05:02:00,
2013-07-09 22:11:00,63.0,58.0,29.94,NW,321,2.0,-999.0,85,-99.99,,,-99.99,,2013-07-10 05:11:00,
2013-07-09 22:22:00,63.0,58.0,29.94,WNW,288,2.0,-999.0,85,-99.99,,,-99.99,,2013-07-10 05:22:00,
2013-07-09 22:32:00,63.0,58.0,29.94,WNW,288,2.0,-999.0,85,-99.99,,,-99.99,,2013-07-10 05:32:00,
2013-07-09 22:42:00,63.0,58.0,29.94,WNW,288,2.0,-999.0,85,-99.99,,,-99.99,,2013-07-10 05:42:00,
2013-07-09 22:52:00,62.0,58.0,29.94,WNW,294,2.0,-999.0,86,-99.99,,,-99.99,,2013-07-10 05:52:00,
2013-07-09 23:01:00,62.0,58.0,29.94,WNW,294,2.0,-999.0,86,-99.99,,,-99.99,,2013-07-10 06:01:00,
2013-07-09 23:11:00,62.0,58.0,29.94,WNW,294,2.0,-999.0,86,-99.99,,,-99.99,,2013-07-10 06:11:00,
2013-07-09 23:21:00,62.0,58.0,29.94,WNW,294,2.0,-999.0,86,-99.99,,,-99.99,,2013-07-10 06:21:00,
2013-07-09 23:32:00,62.0,58.0,29.94,WNW,294,2.0,-999.0,86,-99.99,,,-99.99,,2013-07-10 06:32:00,
2013-07-09 23:52:00,62.0,58.0,29.95,West,279,2.0,-999.0,88,-99.99,,,-99.99,,2013-07-10 06:52:00,